sensor_id;sensor_type;location;lat;lon;timestamp;P1;durP1;ratioP1;P2;durP2;ratioP2
6378;SDS011;3222;48.858;10.128;2023-05-20T00:02:01;3.10;;;2.90;;
6378;SDS011;3222;48.858;10.128;2023-05-20T00:04:27;3.20;;;2.90;;
6378;SDS011;3222;48.858;10.128;2023-05-20T00:06:53;5.03;;;3.07;;
6378;SDS011;3222;48.858;10.128;2023-05-20T00:09:19;3.00;;;2.77;;
6378;SDS011;3222;48.858;10.128;2023-05-20T00:11:44;3.57;;;3.03;;
6378;SDS011;3222;48.858;10.128;2023-05-20T00:14:11;3.40;;;3.10;;
6378;SDS011;3222;48.858;10.128;2023-05-20T00:16:36;3.73;;;3.17;;
6378;SDS011;3222;48.858;10.128;2023-05-20T00:19:02;4.67;;;3.10;;
6378;SDS011;3222;48.858;10.128;2023-05-20T00:21:28;3.27;;;3.07;;
6378;SDS011;3222;48.858;10.128;2023-05-20T00:23:54;6.20;;;3.27;;
6378;SDS011;3222;48.858;10.128;2023-05-20T00:26:20;3.67;;;3.27;;
6378;SDS011;3222;48.858;10.128;2023-05-20T00:28:50;3.80;;;3.50;;
6378;SDS011;3222;48.858;10.128;2023-05-20T00:31:16;3.30;;;3.00;;
6378;SDS011;3222;48.858;10.128;2023-05-20T00:33:42;3.50;;;3.20;;
6378;SDS011;3222;48.858;10.128;2023-05-20T00:36:07;3.80;;;3.40;;
6378;SDS011;3222;48.858;10.128;2023-05-20T00:38:33;5.47;;;3.40;;
6378;SDS011;3222;48.858;10.128;2023-05-20T00:40:59;3.20;;;2.90;;
6378;SDS011;3222;48.858;10.128;2023-05-20T00:43:25;5.50;;;3.40;;
6378;SDS011;3222;48.858;10.128;2023-05-20T00:45:51;4.20;;;3.20;;
6378;SDS011;3222;48.858;10.128;2023-05-20T00:48:17;3.90;;;3.60;;
6378;SDS011;3222;48.858;10.128;2023-05-20T00:50:47;4.30;;;3.60;;
6378;SDS011;3222;48.858;10.128;2023-05-20T00:53:15;3.30;;;3.00;;
6378;SDS011;3222;48.858;10.128;2023-05-20T00:55:42;3.40;;;3.20;;
6378;SDS011;3222;48.858;10.128;2023-05-20T00:58:08;3.50;;;3.20;;
6378;SDS011;3222;48.858;10.128;2023-05-20T01:00:34;3.30;;;3.00;;
6378;SDS011;3222;48.858;10.128;2023-05-20T01:03:00;3.80;;;3.33;;
6378;SDS011;3222;48.858;10.128;2023-05-20T01:05:25;3.80;;;3.50;;
6378;SDS011;3222;48.858;10.128;2023-05-20T01:07:51;3.43;;;3.13;;
6378;SDS011;3222;48.858;10.128;2023-05-20T01:10:17;3.67;;;3.13;;
6378;SDS011;3222;48.858;10.128;2023-05-20T01:12:47;5.33;;;3.30;;
6378;SDS011;3222;48.858;10.128;2023-05-20T01:15:17;3.80;;;3.40;;
6378;SDS011;3222;48.858;10.128;2023-05-20T01:17:46;4.20;;;3.43;;
6378;SDS011;3222;48.858;10.128;2023-05-20T01:20:16;4.00;;;3.60;;
6378;SDS011;3222;48.858;10.128;2023-05-20T01:22:54;3.70;;;3.40;;
6378;SDS011;3222;48.858;10.128;2023-05-20T01:25:21;4.03;;;3.73;;
6378;SDS011;3222;48.858;10.128;2023-05-20T01:27:47;3.50;;;3.20;;
6378;SDS011;3222;48.858;10.128;2023-05-20T01:30:14;4.27;;;3.57;;
6378;SDS011;3222;48.858;10.128;2023-05-20T01:32:42;3.70;;;3.40;;
6378;SDS011;3222;48.858;10.128;2023-05-20T01:35:12;4.30;;;3.40;;
6378;SDS011;3222;48.858;10.128;2023-05-20T01:37:39;4.47;;;3.80;;
6378;SDS011;3222;48.858;10.128;2023-05-20T01:40:09;3.87;;;3.57;;
6378;SDS011;3222;48.858;10.128;2023-05-20T01:42:38;3.87;;;3.57;;
6378;SDS011;3222;48.858;10.128;2023-05-20T01:45:05;3.80;;;3.50;;
6378;SDS011;3222;48.858;10.128;2023-05-20T01:47:31;5.43;;;3.20;;
6378;SDS011;3222;48.858;10.128;2023-05-20T01:49:57;4.93;;;3.60;;
6378;SDS011;3222;48.858;10.128;2023-05-20T01:52:23;4.03;;;3.63;;
6378;SDS011;3222;48.858;10.128;2023-05-20T01:54:49;4.20;;;3.80;;
6378;SDS011;3222;48.858;10.128;2023-05-20T01:57:18;6.23;;;3.87;;
6378;SDS011;3222;48.858;10.128;2023-05-20T01:59:45;4.00;;;3.70;;
6378;SDS011;3222;48.858;10.128;2023-05-20T02:02:11;3.57;;;3.37;;
6378;SDS011;3222;48.858;10.128;2023-05-20T02:04:37;4.23;;;3.87;;
6378;SDS011;3222;48.858;10.128;2023-05-20T02:07:03;4.10;;;3.80;;
6378;SDS011;3222;48.858;10.128;2023-05-20T02:09:29;4.47;;;3.80;;
6378;SDS011;3222;48.858;10.128;2023-05-20T02:11:54;4.13;;;3.73;;
6378;SDS011;3222;48.858;10.128;2023-05-20T02:14:20;4.43;;;4.03;;
6378;SDS011;3222;48.858;10.128;2023-05-20T02:16:46;4.23;;;3.90;;
6378;SDS011;3222;48.858;10.128;2023-05-20T02:19:12;4.80;;;3.80;;
6378;SDS011;3222;48.858;10.128;2023-05-20T02:21:38;4.47;;;4.10;;
6378;SDS011;3222;48.858;10.128;2023-05-20T02:24:05;4.73;;;4.20;;
6378;SDS011;3222;48.858;10.128;2023-05-20T02:26:32;4.43;;;4.03;;
6378;SDS011;3222;48.858;10.128;2023-05-20T02:28:59;5.17;;;4.20;;
6378;SDS011;3222;48.858;10.128;2023-05-20T02:31:25;4.60;;;4.20;;
6378;SDS011;3222;48.858;10.128;2023-05-20T02:33:51;4.43;;;4.07;;
6378;SDS011;3222;48.858;10.128;2023-05-20T02:36:17;4.93;;;4.43;;
6378;SDS011;3222;48.858;10.128;2023-05-20T02:38:43;4.80;;;4.30;;
6378;SDS011;3222;48.858;10.128;2023-05-20T02:41:09;4.13;;;3.73;;
6378;SDS011;3222;48.858;10.128;2023-05-20T02:43:35;4.93;;;4.00;;
6378;SDS011;3222;48.858;10.128;2023-05-20T02:46:01;4.47;;;4.07;;
6378;SDS011;3222;48.858;10.128;2023-05-20T02:48:27;5.57;;;4.30;;
6378;SDS011;3222;48.858;10.128;2023-05-20T02:50:53;4.33;;;3.90;;
6378;SDS011;3222;48.858;10.128;2023-05-20T02:53:19;5.43;;;4.50;;
6378;SDS011;3222;48.858;10.128;2023-05-20T02:55:45;4.63;;;4.23;;
6378;SDS011;3222;48.858;10.128;2023-05-20T02:58:12;4.60;;;4.20;;
6378;SDS011;3222;48.858;10.128;2023-05-20T03:00:38;5.93;;;4.67;;
6378;SDS011;3222;48.858;10.128;2023-05-20T03:03:05;4.37;;;3.97;;
6378;SDS011;3222;48.858;10.128;2023-05-20T03:05:32;4.40;;;4.10;;
6378;SDS011;3222;48.858;10.128;2023-05-20T03:08:01;4.50;;;4.17;;
6378;SDS011;3222;48.858;10.128;2023-05-20T03:10:30;4.30;;;4.00;;
6378;SDS011;3222;48.858;10.128;2023-05-20T03:12:57;4.40;;;4.10;;
6378;SDS011;3222;48.858;10.128;2023-05-20T03:15:23;4.80;;;4.37;;
6378;SDS011;3222;48.858;10.128;2023-05-20T03:17:49;5.67;;;4.40;;
6378;SDS011;3222;48.858;10.128;2023-05-20T03:20:15;4.80;;;4.27;;
6378;SDS011;3222;48.858;10.128;2023-05-20T03:22:41;5.00;;;4.53;;
6378;SDS011;3222;48.858;10.128;2023-05-20T03:25:07;5.13;;;4.20;;
6378;SDS011;3222;48.858;10.128;2023-05-20T03:27:33;5.07;;;4.67;;
6378;SDS011;3222;48.858;10.128;2023-05-20T03:30:01;5.13;;;4.67;;
6378;SDS011;3222;48.858;10.128;2023-05-20T03:32:29;5.40;;;4.67;;
6378;SDS011;3222;48.858;10.128;2023-05-20T03:34:55;4.80;;;4.40;;
6378;SDS011;3222;48.858;10.128;2023-05-20T03:37:22;6.20;;;4.60;;
6378;SDS011;3222;48.858;10.128;2023-05-20T03:39:48;5.57;;;4.73;;
6378;SDS011;3222;48.858;10.128;2023-05-20T03:42:13;4.50;;;4.10;;
6378;SDS011;3222;48.858;10.128;2023-05-20T03:44:40;5.60;;;4.47;;
6378;SDS011;3222;48.858;10.128;2023-05-20T03:47:06;6.07;;;4.60;;
6378;SDS011;3222;48.858;10.128;2023-05-20T03:49:32;6.40;;;4.73;;
6378;SDS011;3222;48.858;10.128;2023-05-20T03:51:57;5.30;;;4.80;;
6378;SDS011;3222;48.858;10.128;2023-05-20T03:54:23;5.83;;;4.73;;
6378;SDS011;3222;48.858;10.128;2023-05-20T03:56:50;4.63;;;4.23;;
6378;SDS011;3222;48.858;10.128;2023-05-20T03:59:17;5.03;;;4.53;;
6378;SDS011;3222;48.858;10.128;2023-05-20T04:01:43;5.07;;;4.30;;
6378;SDS011;3222;48.858;10.128;2023-05-20T04:04:09;5.33;;;4.80;;
6378;SDS011;3222;48.858;10.128;2023-05-20T04:06:35;5.07;;;4.57;;
6378;SDS011;3222;48.858;10.128;2023-05-20T04:09:00;5.37;;;4.70;;
6378;SDS011;3222;48.858;10.128;2023-05-20T04:11:26;5.17;;;4.67;;
6378;SDS011;3222;48.858;10.128;2023-05-20T04:13:52;4.97;;;4.50;;
6378;SDS011;3222;48.858;10.128;2023-05-20T04:16:18;5.57;;;4.90;;
6378;SDS011;3222;48.858;10.128;2023-05-20T04:18:45;5.43;;;4.93;;
6378;SDS011;3222;48.858;10.128;2023-05-20T04:21:12;4.97;;;4.57;;
6378;SDS011;3222;48.858;10.128;2023-05-20T04:23:38;5.47;;;4.03;;
6378;SDS011;3222;48.858;10.128;2023-05-20T04:26:03;6.83;;;5.10;;
6378;SDS011;3222;48.858;10.128;2023-05-20T04:28:30;7.03;;;4.80;;
6378;SDS011;3222;48.858;10.128;2023-05-20T04:30:59;4.93;;;4.53;;
6378;SDS011;3222;48.858;10.128;2023-05-20T04:33:31;5.30;;;4.80;;
6378;SDS011;3222;48.858;10.128;2023-05-20T04:35:57;6.77;;;5.50;;
6378;SDS011;3222;48.858;10.128;2023-05-20T04:38:23;5.57;;;5.07;;
6378;SDS011;3222;48.858;10.128;2023-05-20T04:40:58;6.00;;;5.40;;
6378;SDS011;3222;48.858;10.128;2023-05-20T04:43:24;5.87;;;4.93;;
6378;SDS011;3222;48.858;10.128;2023-05-20T04:45:54;5.90;;;5.40;;
6378;SDS011;3222;48.858;10.128;2023-05-20T04:48:20;5.60;;;5.10;;
6378;SDS011;3222;48.858;10.128;2023-05-20T04:50:47;8.17;;;5.40;;
6378;SDS011;3222;48.858;10.128;2023-05-20T04:53:19;6.50;;;5.50;;
6378;SDS011;3222;48.858;10.128;2023-05-20T04:55:48;5.93;;;5.17;;
6378;SDS011;3222;48.858;10.128;2023-05-20T04:58:18;6.53;;;5.50;;
6378;SDS011;3222;48.858;10.128;2023-05-20T05:00:44;6.00;;;5.40;;
6378;SDS011;3222;48.858;10.128;2023-05-20T05:03:11;5.40;;;4.90;;
6378;SDS011;3222;48.858;10.128;2023-05-20T05:05:37;8.67;;;5.17;;
6378;SDS011;3222;48.858;10.128;2023-05-20T05:08:04;5.90;;;5.13;;
6378;SDS011;3222;48.858;10.128;2023-05-20T05:10:31;5.40;;;4.93;;
6378;SDS011;3222;48.858;10.128;2023-05-20T05:12:57;5.57;;;5.07;;
6378;SDS011;3222;48.858;10.128;2023-05-20T05:15:24;5.53;;;5.03;;
6378;SDS011;3222;48.858;10.128;2023-05-20T05:17:50;6.30;;;5.30;;
6378;SDS011;3222;48.858;10.128;2023-05-20T05:20:16;5.93;;;5.23;;
6378;SDS011;3222;48.858;10.128;2023-05-20T05:22:42;6.00;;;5.40;;
6378;SDS011;3222;48.858;10.128;2023-05-20T05:25:08;7.50;;;5.50;;
6378;SDS011;3222;48.858;10.128;2023-05-20T05:27:35;7.57;;;5.23;;
6378;SDS011;3222;48.858;10.128;2023-05-20T05:30:02;6.20;;;5.60;;
6378;SDS011;3222;48.858;10.128;2023-05-20T05:32:28;6.23;;;5.63;;
6378;SDS011;3222;48.858;10.128;2023-05-20T05:34:54;5.50;;;5.10;;
6378;SDS011;3222;48.858;10.128;2023-05-20T05:37:21;6.40;;;5.77;;
6378;SDS011;3222;48.858;10.128;2023-05-20T05:39:46;6.80;;;6.10;;
6378;SDS011;3222;48.858;10.128;2023-05-20T05:42:12;6.73;;;6.13;;
6378;SDS011;3222;48.858;10.128;2023-05-20T05:44:38;7.10;;;5.97;;
6378;SDS011;3222;48.858;10.128;2023-05-20T05:47:06;6.30;;;5.70;;
6378;SDS011;3222;48.858;10.128;2023-05-20T05:49:32;6.93;;;6.23;;
6378;SDS011;3222;48.858;10.128;2023-05-20T05:51:58;6.33;;;5.73;;
6378;SDS011;3222;48.858;10.128;2023-05-20T05:54:24;6.40;;;5.83;;
6378;SDS011;3222;48.858;10.128;2023-05-20T05:56:51;7.50;;;5.43;;
6378;SDS011;3222;48.858;10.128;2023-05-20T05:59:17;6.97;;;5.67;;
6378;SDS011;3222;48.858;10.128;2023-05-20T06:01:44;6.63;;;6.03;;
6378;SDS011;3222;48.858;10.128;2023-05-20T06:04:10;6.53;;;5.93;;
6378;SDS011;3222;48.858;10.128;2023-05-20T06:06:37;8.40;;;6.23;;
6378;SDS011;3222;48.858;10.128;2023-05-20T06:09:02;6.70;;;6.00;;
6378;SDS011;3222;48.858;10.128;2023-05-20T06:11:28;6.73;;;6.07;;
6378;SDS011;3222;48.858;10.128;2023-05-20T06:13:54;7.13;;;6.23;;
6378;SDS011;3222;48.858;10.128;2023-05-20T06:16:20;6.77;;;6.17;;
6378;SDS011;3222;48.858;10.128;2023-05-20T06:18:46;7.90;;;7.10;;
6378;SDS011;3222;48.858;10.128;2023-05-20T06:21:14;8.40;;;7.57;;
6378;SDS011;3222;48.858;10.128;2023-05-20T06:23:41;7.47;;;6.57;;
6378;SDS011;3222;48.858;10.128;2023-05-20T06:26:09;7.30;;;6.60;;
6378;SDS011;3222;48.858;10.128;2023-05-20T06:28:35;7.00;;;6.40;;
6378;SDS011;3222;48.858;10.128;2023-05-20T06:31:01;6.67;;;6.17;;
6378;SDS011;3222;48.858;10.128;2023-05-20T06:33:30;6.77;;;6.07;;
6378;SDS011;3222;48.858;10.128;2023-05-20T06:36:00;6.60;;;6.00;;
6378;SDS011;3222;48.858;10.128;2023-05-20T06:38:26;6.97;;;6.37;;
6378;SDS011;3222;48.858;10.128;2023-05-20T06:40:52;7.07;;;6.33;;
6378;SDS011;3222;48.858;10.128;2023-05-20T06:43:17;7.20;;;6.50;;
6378;SDS011;3222;48.858;10.128;2023-05-20T06:45:52;8.90;;;6.20;;
6378;SDS011;3222;48.858;10.128;2023-05-20T06:48:38;7.57;;;6.73;;
6378;SDS011;3222;48.858;10.128;2023-05-20T06:51:08;6.87;;;6.20;;
6378;SDS011;3222;48.858;10.128;2023-05-20T06:53:34;6.30;;;5.80;;
6378;SDS011;3222;48.858;10.128;2023-05-20T06:56:02;6.83;;;6.23;;
6378;SDS011;3222;48.858;10.128;2023-05-20T06:58:28;7.53;;;6.83;;
6378;SDS011;3222;48.858;10.128;2023-05-20T07:00:55;6.87;;;6.17;;
6378;SDS011;3222;48.858;10.128;2023-05-20T07:03:21;7.97;;;7.17;;
6378;SDS011;3222;48.858;10.128;2023-05-20T07:05:47;6.73;;;6.13;;
6378;SDS011;3222;48.858;10.128;2023-05-20T07:08:14;6.73;;;6.13;;
6378;SDS011;3222;48.858;10.128;2023-05-20T07:10:40;9.23;;;6.73;;
6378;SDS011;3222;48.858;10.128;2023-05-20T07:13:07;7.43;;;6.73;;
6378;SDS011;3222;48.858;10.128;2023-05-20T07:15:32;6.93;;;6.20;;
6378;SDS011;3222;48.858;10.128;2023-05-20T07:17:58;7.23;;;6.57;;
6378;SDS011;3222;48.858;10.128;2023-05-20T07:20:24;7.00;;;6.30;;
6378;SDS011;3222;48.858;10.128;2023-05-20T07:22:50;9.67;;;6.60;;
6378;SDS011;3222;48.858;10.128;2023-05-20T07:25:22;7.30;;;6.60;;
6378;SDS011;3222;48.858;10.128;2023-05-20T07:27:47;6.87;;;6.20;;
6378;SDS011;3222;48.858;10.128;2023-05-20T07:30:13;7.50;;;6.80;;
6378;SDS011;3222;48.858;10.128;2023-05-20T07:32:42;7.60;;;6.90;;
6378;SDS011;3222;48.858;10.128;2023-05-20T07:35:08;7.33;;;6.60;;
6378;SDS011;3222;48.858;10.128;2023-05-20T07:37:34;6.90;;;6.20;;
6378;SDS011;3222;48.858;10.128;2023-05-20T07:40:00;6.80;;;6.20;;
6378;SDS011;3222;48.858;10.128;2023-05-20T07:42:26;7.27;;;6.37;;
6378;SDS011;3222;48.858;10.128;2023-05-20T07:44:57;7.07;;;6.43;;
6378;SDS011;3222;48.858;10.128;2023-05-20T07:47:22;6.47;;;5.97;;
6378;SDS011;3222;48.858;10.128;2023-05-20T07:49:48;6.60;;;5.97;;
6378;SDS011;3222;48.858;10.128;2023-05-20T07:52:14;6.70;;;6.10;;
6378;SDS011;3222;48.858;10.128;2023-05-20T07:54:40;7.20;;;6.50;;
6378;SDS011;3222;48.858;10.128;2023-05-20T07:57:06;10.03;;;6.67;;
6378;SDS011;3222;48.858;10.128;2023-05-20T07:59:31;7.07;;;6.33;;
6378;SDS011;3222;48.858;10.128;2023-05-20T08:01:57;7.30;;;6.57;;
6378;SDS011;3222;48.858;10.128;2023-05-20T08:04:23;6.73;;;5.80;;
6378;SDS011;3222;48.858;10.128;2023-05-20T08:06:52;8.90;;;6.30;;
6378;SDS011;3222;48.858;10.128;2023-05-20T08:09:24;7.40;;;6.70;;
6378;SDS011;3222;48.858;10.128;2023-05-20T08:11:53;7.27;;;6.60;;
6378;SDS011;3222;48.858;10.128;2023-05-20T08:14:19;6.43;;;5.83;;
6378;SDS011;3222;48.858;10.128;2023-05-20T08:16:48;6.53;;;5.93;;
6378;SDS011;3222;48.858;10.128;2023-05-20T08:19:13;7.00;;;5.77;;
6378;SDS011;3222;48.858;10.128;2023-05-20T08:21:39;7.00;;;6.03;;
6378;SDS011;3222;48.858;10.128;2023-05-20T08:24:05;6.47;;;5.77;;
6378;SDS011;3222;48.858;10.128;2023-05-20T08:26:31;9.50;;;7.23;;
6378;SDS011;3222;48.858;10.128;2023-05-20T08:28:57;6.33;;;5.70;;
6378;SDS011;3222;48.858;10.128;2023-05-20T08:31:22;6.97;;;5.73;;
6378;SDS011;3222;48.858;10.128;2023-05-20T08:33:48;6.43;;;5.83;;
6378;SDS011;3222;48.858;10.128;2023-05-20T08:36:14;6.73;;;5.63;;
6378;SDS011;3222;48.858;10.128;2023-05-20T08:38:40;7.37;;;5.77;;
6378;SDS011;3222;48.858;10.128;2023-05-20T08:41:06;9.90;;;5.97;;
6378;SDS011;3222;48.858;10.128;2023-05-20T08:43:33;6.40;;;5.80;;
6378;SDS011;3222;48.858;10.128;2023-05-20T08:46:00;6.97;;;6.27;;
6378;SDS011;3222;48.858;10.128;2023-05-20T08:48:31;7.07;;;6.37;;
6378;SDS011;3222;48.858;10.128;2023-05-20T08:50:57;6.57;;;5.87;;
6378;SDS011;3222;48.858;10.128;2023-05-20T08:53:24;6.80;;;6.00;;
6378;SDS011;3222;48.858;10.128;2023-05-20T08:55:54;8.10;;;5.70;;
6378;SDS011;3222;48.858;10.128;2023-05-20T08:58:22;6.57;;;5.53;;
6378;SDS011;3222;48.858;10.128;2023-05-20T09:00:49;7.30;;;5.80;;
6378;SDS011;3222;48.858;10.128;2023-05-20T09:03:17;6.10;;;5.60;;
6378;SDS011;3222;48.858;10.128;2023-05-20T09:05:44;6.67;;;6.07;;
6378;SDS011;3222;48.858;10.128;2023-05-20T09:08:10;7.17;;;6.03;;
6378;SDS011;3222;48.858;10.128;2023-05-20T09:10:40;6.30;;;5.70;;
6378;SDS011;3222;48.858;10.128;2023-05-20T09:13:06;5.60;;;5.10;;
6378;SDS011;3222;48.858;10.128;2023-05-20T09:15:33;6.73;;;6.13;;
6378;SDS011;3222;48.858;10.128;2023-05-20T09:18:00;8.90;;;5.90;;
6378;SDS011;3222;48.858;10.128;2023-05-20T09:20:28;5.97;;;5.37;;
6378;SDS011;3222;48.858;10.128;2023-05-20T09:23:04;8.73;;;5.90;;
6378;SDS011;3222;48.858;10.128;2023-05-20T09:25:31;8.17;;;5.50;;
6378;SDS011;3222;48.858;10.128;2023-05-20T09:27:57;5.97;;;5.30;;
6378;SDS011;3222;48.858;10.128;2023-05-20T09:30:23;6.67;;;5.20;;
6378;SDS011;3222;48.858;10.128;2023-05-20T09:32:55;5.50;;;5.10;;
6378;SDS011;3222;48.858;10.128;2023-05-20T09:35:22;5.70;;;5.10;;
6378;SDS011;3222;48.858;10.128;2023-05-20T09:37:51;8.20;;;5.63;;
6378;SDS011;3222;48.858;10.128;2023-05-20T09:40:20;5.37;;;4.87;;
6378;SDS011;3222;48.858;10.128;2023-05-20T09:42:50;8.33;;;5.27;;
6378;SDS011;3222;48.858;10.128;2023-05-20T09:45:31;10.07;;;5.97;;
6378;SDS011;3222;48.858;10.128;2023-05-20T09:47:57;6.60;;;4.73;;
6378;SDS011;3222;48.858;10.128;2023-05-20T09:50:25;9.03;;;4.67;;
6378;SDS011;3222;48.858;10.128;2023-05-20T09:52:53;7.93;;;4.60;;
6378;SDS011;3222;48.858;10.128;2023-05-20T09:55:22;4.77;;;4.33;;
6378;SDS011;3222;48.858;10.128;2023-05-20T09:57:49;4.43;;;4.13;;
6378;SDS011;3222;48.858;10.128;2023-05-20T10:00:15;4.70;;;4.30;;
6378;SDS011;3222;48.858;10.128;2023-05-20T10:02:42;4.57;;;4.17;;
6378;SDS011;3222;48.858;10.128;2023-05-20T10:05:24;4.87;;;4.43;;
6378;SDS011;3222;48.858;10.128;2023-05-20T10:11:01;7.63;;;4.73;;
6378;SDS011;3222;48.858;10.128;2023-05-20T10:16:23;5.10;;;4.50;;
6378;SDS011;3222;48.858;10.128;2023-05-20T10:19:08;5.33;;;4.30;;
6378;SDS011;3222;48.858;10.128;2023-05-20T10:21:39;4.77;;;4.33;;
6378;SDS011;3222;48.858;10.128;2023-05-20T10:24:05;4.57;;;3.80;;
6378;SDS011;3222;48.858;10.128;2023-05-20T10:26:39;6.57;;;4.63;;
6378;SDS011;3222;48.858;10.128;2023-05-20T10:29:18;5.93;;;4.30;;
6378;SDS011;3222;48.858;10.128;2023-05-20T10:31:48;4.37;;;3.97;;
6378;SDS011;3222;48.858;10.128;2023-05-20T10:34:15;3.97;;;3.67;;
6378;SDS011;3222;48.858;10.128;2023-05-20T10:39:28;4.13;;;3.73;;
6378;SDS011;3222;48.858;10.128;2023-05-20T10:42:06;4.20;;;3.80;;
6378;SDS011;3222;48.858;10.128;2023-05-20T10:44:45;4.73;;;4.33;;
6378;SDS011;3222;48.858;10.128;2023-05-20T10:47:12;7.27;;;4.30;;
6378;SDS011;3222;48.858;10.128;2023-05-20T10:49:44;5.33;;;4.57;;
6378;SDS011;3222;48.858;10.128;2023-05-20T10:52:17;4.27;;;3.87;;
6378;SDS011;3222;48.858;10.128;2023-05-20T10:54:57;5.63;;;4.03;;
6378;SDS011;3222;48.858;10.128;2023-05-20T10:57:27;4.07;;;3.77;;
6378;SDS011;3222;48.858;10.128;2023-05-20T10:59:53;4.63;;;4.17;;
6378;SDS011;3222;48.858;10.128;2023-05-20T11:02:20;5.07;;;4.33;;
6378;SDS011;3222;48.858;10.128;2023-05-20T11:04:57;6.53;;;4.20;;
6378;SDS011;3222;48.858;10.128;2023-05-20T11:09:55;4.87;;;4.47;;
6378;SDS011;3222;48.858;10.128;2023-05-20T11:12:22;5.00;;;4.50;;
6378;SDS011;3222;48.858;10.128;2023-05-20T11:14:48;5.40;;;4.83;;
6378;SDS011;3222;48.858;10.128;2023-05-20T11:17:14;6.53;;;4.00;;
6378;SDS011;3222;48.858;10.128;2023-05-20T11:19:41;4.60;;;4.20;;
6378;SDS011;3222;48.858;10.128;2023-05-20T11:22:07;3.97;;;3.67;;
6378;SDS011;3222;48.858;10.128;2023-05-20T11:24:32;4.83;;;4.20;;
6378;SDS011;3222;48.858;10.128;2023-05-20T11:26:59;5.93;;;4.40;;
6378;SDS011;3222;48.858;10.128;2023-05-20T11:29:26;5.13;;;3.87;;
6378;SDS011;3222;48.858;10.128;2023-05-20T11:31:53;4.20;;;3.87;;
6378;SDS011;3222;48.858;10.128;2023-05-20T11:34:19;4.40;;;4.00;;
6378;SDS011;3222;48.858;10.128;2023-05-20T11:36:46;3.93;;;3.57;;
6378;SDS011;3222;48.858;10.128;2023-05-20T11:39:14;4.87;;;3.87;;
6378;SDS011;3222;48.858;10.128;2023-05-20T11:41:43;3.87;;;3.57;;
6378;SDS011;3222;48.858;10.128;2023-05-20T11:44:09;5.27;;;3.30;;
6378;SDS011;3222;48.858;10.128;2023-05-20T11:47:23;3.77;;;3.20;;
6378;SDS011;3222;48.858;10.128;2023-05-20T11:49:27;3.77;;;3.47;;
6378;SDS011;3222;48.858;10.128;2023-05-20T11:51:55;4.40;;;3.27;;
6378;SDS011;3222;48.858;10.128;2023-05-20T11:54:21;4.00;;;3.70;;
6378;SDS011;3222;48.858;10.128;2023-05-20T11:56:48;3.83;;;3.53;;
6378;SDS011;3222;48.858;10.128;2023-05-20T11:59:14;5.07;;;4.07;;
6378;SDS011;3222;48.858;10.128;2023-05-20T12:01:39;3.80;;;3.50;;
6378;SDS011;3222;48.858;10.128;2023-05-20T12:04:08;3.40;;;3.10;;
6378;SDS011;3222;48.858;10.128;2023-05-20T12:06:34;4.03;;;3.30;;
6378;SDS011;3222;48.858;10.128;2023-05-20T12:09:10;4.10;;;3.67;;
6378;SDS011;3222;48.858;10.128;2023-05-20T12:11:38;3.97;;;3.67;;
6378;SDS011;3222;48.858;10.128;2023-05-20T12:14:05;4.77;;;3.90;;
6378;SDS011;3222;48.858;10.128;2023-05-20T12:16:32;4.13;;;3.83;;
6378;SDS011;3222;48.858;10.128;2023-05-20T12:18:59;4.00;;;3.70;;
6378;SDS011;3222;48.858;10.128;2023-05-20T12:21:24;3.83;;;3.53;;
6378;SDS011;3222;48.858;10.128;2023-05-20T12:23:51;4.10;;;3.80;;
6378;SDS011;3222;48.858;10.128;2023-05-20T12:26:22;3.87;;;3.33;;
6378;SDS011;3222;48.858;10.128;2023-05-20T12:28:48;3.77;;;3.43;;
6378;SDS011;3222;48.858;10.128;2023-05-20T12:31:13;4.50;;;3.17;;
6378;SDS011;3222;48.858;10.128;2023-05-20T12:33:39;3.60;;;3.30;;
6378;SDS011;3222;48.858;10.128;2023-05-20T12:36:05;7.60;;;3.73;;
6378;SDS011;3222;48.858;10.128;2023-05-20T12:38:31;7.53;;;4.23;;
6378;SDS011;3222;48.858;10.128;2023-05-20T12:40:57;3.80;;;3.50;;
6378;SDS011;3222;48.858;10.128;2023-05-20T12:43:23;3.63;;;3.33;;
6378;SDS011;3222;48.858;10.128;2023-05-20T12:45:49;4.40;;;3.30;;
6378;SDS011;3222;48.858;10.128;2023-05-20T12:48:16;5.00;;;3.43;;
6378;SDS011;3222;48.858;10.128;2023-05-20T12:50:42;3.87;;;3.37;;
6378;SDS011;3222;48.858;10.128;2023-05-20T12:53:08;8.87;;;3.53;;
6378;SDS011;3222;48.858;10.128;2023-05-20T12:55:33;4.97;;;3.80;;
6378;SDS011;3222;48.858;10.128;2023-05-20T12:57:59;6.20;;;3.40;;
6378;SDS011;3222;48.858;10.128;2023-05-20T13:00:25;8.77;;;3.90;;
6378;SDS011;3222;48.858;10.128;2023-05-20T13:02:50;4.23;;;3.57;;
6378;SDS011;3222;48.858;10.128;2023-05-20T13:05:17;5.00;;;3.67;;
6378;SDS011;3222;48.858;10.128;2023-05-20T13:07:42;8.37;;;4.00;;
6378;SDS011;3222;48.858;10.128;2023-05-20T13:10:09;4.40;;;4.00;;
6378;SDS011;3222;48.858;10.128;2023-05-20T13:12:35;4.47;;;3.77;;
6378;SDS011;3222;48.858;10.128;2023-05-20T13:15:02;4.00;;;3.60;;
6378;SDS011;3222;48.858;10.128;2023-05-20T13:17:28;8.53;;;3.10;;
6378;SDS011;3222;48.858;10.128;2023-05-20T13:19:54;4.00;;;3.33;;
6378;SDS011;3222;48.858;10.128;2023-05-20T13:22:20;4.13;;;3.77;;
6378;SDS011;3222;48.858;10.128;2023-05-20T13:24:46;6.80;;;3.80;;
6378;SDS011;3222;48.858;10.128;2023-05-20T13:27:13;5.20;;;3.90;;
6378;SDS011;3222;48.858;10.128;2023-05-20T13:29:39;7.73;;;3.90;;
6378;SDS011;3222;48.858;10.128;2023-05-20T13:32:06;5.03;;;4.00;;
6378;SDS011;3222;48.858;10.128;2023-05-20T13:34:31;4.73;;;3.90;;
6378;SDS011;3222;48.858;10.128;2023-05-20T13:36:57;4.83;;;3.50;;
6378;SDS011;3222;48.858;10.128;2023-05-20T13:39:23;5.27;;;3.53;;
6378;SDS011;3222;48.858;10.128;2023-05-20T13:41:49;5.20;;;3.50;;
6378;SDS011;3222;48.858;10.128;2023-05-20T13:44:17;3.70;;;3.40;;
6378;SDS011;3222;48.858;10.128;2023-05-20T13:46:43;4.30;;;3.80;;
6378;SDS011;3222;48.858;10.128;2023-05-20T13:49:08;4.18;;;3.65;;
6378;SDS011;3222;48.858;10.128;2023-05-20T13:51:34;3.90;;;3.60;;
6378;SDS011;3222;48.858;10.128;2023-05-20T13:54:00;3.63;;;3.33;;
6378;SDS011;3222;48.858;10.128;2023-05-20T13:56:25;4.87;;;3.70;;
6378;SDS011;3222;48.858;10.128;2023-05-20T13:58:52;6.00;;;3.63;;
6378;SDS011;3222;48.858;10.128;2023-05-20T14:01:18;5.03;;;3.67;;
6378;SDS011;3222;48.858;10.128;2023-05-20T14:03:43;5.60;;;3.80;;
6378;SDS011;3222;48.858;10.128;2023-05-20T14:06:09;7.10;;;3.90;;
6378;SDS011;3222;48.858;10.128;2023-05-20T14:08:35;4.30;;;3.63;;
6378;SDS011;3222;48.858;10.128;2023-05-20T14:11:01;22.13;;;5.77;;
6378;SDS011;3222;48.858;10.128;2023-05-20T14:13:27;7.57;;;4.17;;
6378;SDS011;3222;48.858;10.128;2023-05-20T14:15:53;13.50;;;4.03;;
6378;SDS011;3222;48.858;10.128;2023-05-20T14:18:19;6.87;;;3.73;;
6378;SDS011;3222;48.858;10.128;2023-05-20T14:20:45;4.20;;;3.23;;
6378;SDS011;3222;48.858;10.128;2023-05-20T14:23:11;3.37;;;3.10;;
6378;SDS011;3222;48.858;10.128;2023-05-20T14:25:38;5.87;;;3.30;;
6378;SDS011;3222;48.858;10.128;2023-05-20T14:28:04;5.33;;;3.50;;
6378;SDS011;3222;48.858;10.128;2023-05-20T14:30:30;4.03;;;3.10;;
6378;SDS011;3222;48.858;10.128;2023-05-20T14:32:56;5.55;;;3.50;;
6378;SDS011;3222;48.858;10.128;2023-05-20T14:35:22;3.80;;;3.43;;
6378;SDS011;3222;48.858;10.128;2023-05-20T14:37:47;4.60;;;2.85;;
6378;SDS011;3222;48.858;10.128;2023-05-20T14:40:13;3.33;;;3.00;;
6378;SDS011;3222;48.858;10.128;2023-05-20T14:42:39;3.65;;;3.30;;
6378;SDS011;3222;48.858;10.128;2023-05-20T14:45:05;3.50;;;3.10;;
6378;SDS011;3222;48.858;10.128;2023-05-20T14:47:31;3.97;;;3.10;;
6378;SDS011;3222;48.858;10.128;2023-05-20T14:49:57;3.27;;;2.97;;
6378;SDS011;3222;48.858;10.128;2023-05-20T14:52:24;9.40;;;3.28;;
6378;SDS011;3222;48.858;10.128;2023-05-20T14:54:50;4.10;;;3.47;;
6378;SDS011;3222;48.858;10.128;2023-05-20T14:57:16;11.18;;;3.25;;
6378;SDS011;3222;48.858;10.128;2023-05-20T14:59:41;4.30;;;3.28;;
6378;SDS011;3222;48.858;10.128;2023-05-20T15:02:07;9.63;;;3.33;;
6378;SDS011;3222;48.858;10.128;2023-05-20T15:04:33;3.23;;;3.03;;
6378;SDS011;3222;48.858;10.128;2023-05-20T15:06:59;5.13;;;3.87;;
6378;SDS011;3222;48.858;10.128;2023-05-20T15:09:25;12.95;;;3.97;;
6378;SDS011;3222;48.858;10.128;2023-05-20T15:11:51;3.53;;;3.20;;